createdAt,value
2019-05-13T00:01:24.386Z,11.30
2019-05-13T00:03:55.528Z,11.30
2019-05-13T00:06:26.630Z,10.68
2019-05-13T00:08:59.004Z,8.23
2019-05-13T00:11:30.221Z,9.70
2019-05-13T00:14:01.135Z,9.33
2019-05-13T00:16:34.170Z,9.75
2019-05-13T00:19:05.032Z,10.10
2019-05-13T00:21:36.359Z,10.67
2019-05-13T00:24:07.517Z,9.10
2019-05-13T00:26:39.024Z,12.23
2019-05-13T00:29:10.100Z,10.20
2019-05-13T00:31:43.700Z,10.53
2019-05-13T00:34:14.600Z,9.00
2019-05-13T00:36:45.954Z,9.90
2019-05-13T00:39:17.390Z,7.77
2019-05-13T00:41:48.648Z,7.47
2019-05-13T00:44:19.812Z,7.80
2019-05-13T00:46:50.898Z,7.60
2019-05-13T00:49:23.887Z,6.87
2019-05-13T00:51:55.977Z,6.90
2019-05-13T00:54:26.930Z,5.53
2019-05-13T00:56:57.905Z,5.87
2019-05-13T00:59:29.115Z,5.40
2019-05-13T01:02:00.301Z,4.30
2019-05-13T01:04:33.700Z,4.07
2019-05-13T01:07:04.645Z,4.97
2019-05-13T01:09:36.192Z,4.55
2019-05-13T01:12:07.223Z,4.43
2019-05-13T01:14:38.963Z,4.97
2019-05-13T01:17:10.405Z,5.03
2019-05-13T01:19:43.317Z,5.20
2019-05-13T01:22:14.673Z,5.72
2019-05-13T01:24:45.755Z,5.23
2019-05-13T01:27:17.129Z,4.50
2019-05-13T01:29:48.414Z,4.42
2019-05-13T01:32:19.367Z,4.20
2019-05-13T01:34:50.486Z,4.13
2019-05-13T01:37:24.773Z,4.77
2019-05-13T01:39:56.415Z,4.00
2019-05-13T01:42:27.649Z,4.20
2019-05-13T01:44:58.777Z,4.23
2019-05-13T01:47:30.282Z,4.20
2019-05-13T01:50:04.079Z,4.17
2019-05-13T01:52:34.492Z,3.50
2019-05-13T01:55:08.064Z,3.23
2019-05-13T01:57:39.286Z,3.67
2019-05-13T02:00:13.762Z,3.70
2019-05-13T02:02:44.485Z,3.93
2019-05-13T02:05:16.054Z,3.90
2019-05-13T02:07:57.016Z,3.60
2019-05-13T02:10:22.063Z,3.50
2019-05-13T02:12:53.615Z,3.97
2019-05-13T02:15:24.861Z,3.98
2019-05-13T02:17:55.900Z,3.60
2019-05-13T02:20:27.096Z,3.75
2019-05-13T02:22:58.221Z,3.40
2019-05-13T02:25:29.396Z,3.70
2019-05-13T02:28:00.526Z,4.03
2019-05-13T02:30:34.932Z,4.30
2019-05-13T02:33:04.509Z,3.90
2019-05-13T02:35:35.601Z,3.50
2019-05-13T02:38:19.696Z,4.12
2019-05-13T02:40:42.917Z,4.67
2019-05-13T02:43:13.761Z,3.80
2019-05-13T02:45:45.085Z,3.80
2019-05-13T02:48:16.460Z,4.00
2019-05-13T02:50:47.517Z,3.77
2019-05-13T02:53:18.577Z,4.83
2019-05-13T02:55:52.312Z,5.70
2019-05-13T02:58:24.162Z,6.50
2019-05-13T03:00:55.206Z,6.00
2019-05-13T03:03:26.482Z,6.00
2019-05-13T03:05:57.943Z,6.77
2019-05-13T03:08:48.322Z,7.30
2019-05-13T03:11:03.029Z,6.63
2019-05-13T03:13:34.377Z,8.50
2019-05-13T03:16:13.242Z,8.20
2019-05-13T03:18:44.474Z,8.03
2019-05-13T03:21:15.779Z,8.10
2019-05-13T03:23:46.752Z,8.00
2019-05-13T03:26:17.951Z,7.63
2019-05-13T03:28:52.162Z,6.97
2019-05-13T03:31:26.539Z,7.50
2019-05-13T03:33:56.708Z,8.97
2019-05-13T03:36:28.409Z,6.35
2019-05-13T03:39:06.932Z,6.13
2019-05-13T03:41:36.394Z,5.50
2019-05-13T03:44:13.535Z,6.37
2019-05-13T03:46:45.991Z,6.70
2019-05-13T03:49:23.064Z,7.23
2019-05-13T03:51:53.633Z,6.73
2019-05-13T03:54:25.097Z,6.60
2019-05-13T03:56:56.999Z,7.33
2019-05-13T03:59:28.361Z,6.53
2019-05-13T04:02:02.481Z,8.17
2019-05-13T04:04:32.767Z,7.67
2019-05-13T04:07:04.205Z,7.00
2019-05-13T04:09:36.752Z,7.50
2019-05-13T04:12:08.427Z,7.53
2019-05-13T04:14:42.185Z,7.50
2019-05-13T04:17:12.787Z,8.40
2019-05-13T04:19:44.475Z,9.20
2019-05-13T04:22:15.873Z,9.87
2019-05-13T04:24:48.119Z,10.30
2019-05-13T04:27:19.384Z,11.20
2019-05-13T04:29:52.793Z,9.03
2019-05-13T04:32:28.241Z,8.57
2019-05-13T04:34:57.177Z,8.50
2019-05-13T04:37:28.288Z,8.57
2019-05-13T04:40:03.379Z,9.47
2019-05-13T04:42:33.290Z,8.13
2019-05-13T04:45:06.166Z,8.43
2019-05-13T04:47:37.235Z,7.60
2019-05-13T04:50:12.826Z,8.33
2019-05-13T04:52:43.031Z,7.23
2019-05-13T04:55:14.372Z,7.87
2019-05-13T04:57:45.761Z,7.53
2019-05-13T05:00:23.364Z,6.90
2019-05-13T05:03:04.830Z,8.23
2019-05-13T05:05:55.377Z,8.10
2019-05-13T05:08:52.482Z,7.90
2019-05-13T05:11:52.902Z,8.10
2019-05-13T05:14:32.535Z,7.77
2019-05-13T05:17:43.419Z,7.77
2019-05-13T05:20:34.117Z,9.53
2019-05-13T05:23:34.023Z,9.53
2019-05-13T05:26:45.953Z,11.20
2019-05-13T05:29:51.636Z,14.60
2019-05-13T05:32:54.411Z,13.10
2019-05-13T05:36:01.822Z,11.83
2019-05-13T05:38:43.415Z,11.23
2019-05-13T05:41:18.129Z,10.78
2019-05-13T05:43:53.158Z,7.63
2019-05-13T05:46:26.666Z,10.48
2019-05-13T05:49:02.118Z,9.70
2019-05-13T05:51:35.317Z,8.50
2019-05-13T05:54:11.163Z,9.60
2019-05-13T05:56:42.134Z,11.45
2019-05-13T05:59:13.181Z,11.05
2019-05-13T06:01:47.669Z,9.50
2019-05-13T06:04:21.998Z,8.10
2019-05-13T06:06:56.165Z,8.53
2019-05-13T06:09:27.759Z,8.47
2019-05-13T06:11:58.816Z,7.73
2019-05-13T06:14:32.380Z,9.23
2019-05-13T06:17:03.098Z,10.68
2019-05-13T06:19:34.667Z,8.78
2019-05-13T06:22:05.738Z,9.93
2019-05-13T06:24:36.957Z,11.40
2019-05-13T06:27:08.100Z,12.35
2019-05-13T06:29:39.258Z,14.23
2019-05-13T06:32:19.098Z,13.58
2019-05-13T06:34:43.447Z,13.13
2019-05-13T06:37:14.586Z,15.30
2019-05-13T06:39:45.816Z,14.05
2019-05-13T06:42:17.135Z,14.38
2019-05-13T06:44:48.208Z,14.50
2019-05-13T06:47:21.749Z,14.87
2019-05-13T06:49:52.081Z,14.43
2019-05-13T06:52:23.212Z,15.95
2019-05-13T06:54:54.730Z,13.40
2019-05-13T06:57:25.835Z,12.63
2019-05-13T06:59:57.184Z,13.53
2019-05-13T07:02:28.411Z,14.15
2019-05-13T07:05:02.068Z,12.80
2019-05-13T07:07:32.520Z,13.38
2019-05-13T07:10:04.674Z,14.53
2019-05-13T07:12:38.451Z,12.45
2019-05-13T07:15:11.542Z,12.37
2019-05-13T07:17:43.512Z,15.83
2019-05-13T07:20:15.472Z,12.90
2019-05-13T07:22:46.510Z,14.30
2019-05-13T07:25:17.646Z,13.70
2019-05-13T07:27:51.386Z,15.95
2019-05-13T07:30:43.401Z,13.70
2019-05-13T07:33:14.736Z,14.27
2019-05-13T07:35:46.496Z,12.65
2019-05-13T07:38:18.763Z,14.37
2019-05-13T07:40:54.289Z,16.37
2019-05-13T07:43:25.851Z,13.43
2019-05-13T07:45:57.282Z,15.10
2019-05-13T07:48:28.549Z,21.00
2019-05-13T07:51:04.265Z,23.62
2019-05-13T07:53:33.477Z,14.18
2019-05-13T07:56:04.836Z,11.00
2019-05-13T07:58:37.539Z,10.38
2019-05-13T08:01:11.996Z,10.93
2019-05-13T08:03:42.297Z,11.60
2019-05-13T08:06:13.469Z,11.57
2019-05-13T08:08:44.593Z,12.07
2019-05-13T08:11:15.843Z,11.25
2019-05-13T08:13:46.872Z,10.78
2019-05-13T08:16:18.107Z,11.00
2019-05-13T08:18:49.097Z,14.63
2019-05-13T08:21:21.487Z,13.35
2019-05-13T08:23:53.238Z,10.93
2019-05-13T08:26:24.741Z,13.65
2019-05-13T08:29:01.611Z,13.05
2019-05-13T08:31:32.061Z,11.73
2019-05-13T08:34:04.059Z,19.42
2019-05-13T08:36:35.238Z,18.80
2019-05-13T08:39:12.755Z,12.85
2019-05-13T08:41:43.553Z,13.13
2019-05-13T08:44:14.857Z,12.07
2019-05-13T08:46:46.216Z,12.30
2019-05-13T08:49:17.589Z,11.43
2019-05-13T08:51:48.890Z,10.13
2019-05-13T08:54:21.996Z,10.98
2019-05-13T08:56:53.171Z,8.78
2019-05-13T08:59:24.227Z,9.35
2019-05-13T09:01:56.151Z,8.95
2019-05-13T09:04:27.303Z,7.40
2019-05-13T09:07:01.763Z,8.18
2019-05-13T09:09:32.393Z,9.00
2019-05-13T09:12:03.581Z,7.22
2019-05-13T09:14:34.772Z,5.78
2019-05-13T09:17:06.148Z,5.83
2019-05-13T09:19:37.753Z,7.67
2019-05-13T09:22:08.802Z,9.58
2019-05-13T09:24:42.262Z,6.92
2019-05-13T09:27:12.688Z,5.55
2019-05-13T09:29:43.682Z,6.40
2019-05-13T09:32:14.908Z,6.42
2019-05-13T09:34:45.956Z,5.30
2019-05-13T09:37:17.080Z,7.05
2019-05-13T09:39:48.238Z,5.70
2019-05-13T09:42:21.469Z,6.90
2019-05-13T09:44:52.644Z,4.50
2019-05-13T09:47:28.059Z,5.12
2019-05-13T09:49:57.248Z,4.17
2019-05-13T09:52:28.390Z,4.12
2019-05-13T09:54:59.779Z,5.90
2019-05-13T09:57:32.201Z,7.58
2019-05-13T10:00:05.537Z,5.00
2019-05-13T10:02:37.082Z,5.87
2019-05-13T10:05:11.192Z,5.22
2019-05-13T10:07:42.639Z,5.03
2019-05-13T10:10:15.711Z,5.50
2019-05-13T10:13:06.071Z,7.10
2019-05-13T10:15:22.150Z,4.47
2019-05-13T10:17:52.931Z,5.80
2019-05-13T10:20:58.381Z,4.90
2019-05-13T10:23:27.898Z,4.22
2019-05-13T10:26:06.682Z,4.75
2019-05-13T10:28:38.007Z,3.65
2019-05-13T10:31:12.004Z,3.25
2019-05-13T10:33:42.490Z,3.42
2019-05-13T10:36:14.352Z,4.05
2019-05-13T10:38:45.950Z,3.98
2019-05-13T10:41:17.019Z,5.20
2019-05-13T10:43:48.262Z,5.92
2019-05-13T10:46:21.605Z,4.20
2019-05-13T10:48:52.870Z,3.65
2019-05-13T10:51:24.204Z,4.35
2019-05-13T10:53:59.474Z,7.28
2019-05-13T10:56:28.406Z,4.62
2019-05-13T10:59:02.490Z,5.28
2019-05-13T11:01:32.894Z,7.17
2019-05-13T11:04:04.562Z,3.30
2019-05-13T11:06:35.753Z,6.05
2019-05-13T11:09:13.010Z,5.22
2019-05-13T11:11:44.125Z,5.62
2019-05-13T11:14:15.939Z,6.10
2019-05-13T11:16:47.325Z,4.87
2019-05-13T11:19:18.516Z,4.72
2019-05-13T11:21:50.797Z,4.30
2019-05-13T11:24:22.982Z,4.75
2019-05-13T11:26:54.336Z,4.10
2019-05-13T11:29:25.325Z,4.00
2019-05-13T11:31:56.514Z,3.35
2019-05-13T11:34:27.853Z,3.87
2019-05-13T11:36:59.149Z,3.60
2019-05-13T11:39:32.492Z,6.55
2019-05-13T11:42:03.012Z,3.92
2019-05-13T11:44:34.226Z,3.40
2019-05-13T11:47:06.163Z,3.62
2019-05-13T11:49:37.437Z,3.47
2019-05-13T11:52:11.099Z,3.83
2019-05-13T11:54:42.493Z,3.70
2019-05-13T11:57:13.764Z,4.50
2019-05-13T11:59:44.844Z,4.22
2019-05-13T12:02:15.937Z,4.60
2019-05-13T12:04:47.399Z,3.72
2019-05-13T12:07:18.790Z,3.87
2019-05-13T12:09:51.857Z,4.83
2019-05-13T12:12:30.175Z,4.87
2019-05-13T12:15:22.514Z,4.35
2019-05-13T12:17:28.794Z,4.20
2019-05-13T12:20:02.302Z,5.42
2019-05-13T12:22:32.623Z,4.42
2019-05-13T12:25:05.414Z,5.28
2019-05-13T12:27:36.565Z,3.75
2019-05-13T12:30:08.798Z,4.47
2019-05-13T12:32:43.771Z,3.80
2019-05-13T12:35:13.659Z,4.15
2019-05-13T12:37:45.123Z,4.03
2019-05-13T12:40:16.869Z,3.50
2019-05-13T12:42:48.059Z,4.33
2019-05-13T12:45:22.449Z,3.92
2019-05-13T12:47:53.640Z,5.15
2019-05-13T12:50:25.606Z,6.53
2019-05-13T12:52:56.923Z,7.50
2019-05-13T12:55:28.011Z,9.00
2019-05-13T12:58:02.482Z,6.80
2019-05-13T13:00:33.036Z,6.20
2019-05-13T13:03:04.345Z,4.92
2019-05-13T13:05:37.094Z,4.58
2019-05-13T13:08:24.019Z,4.22
2019-05-13T13:10:42.370Z,4.40
2019-05-13T13:13:14.127Z,4.50
2019-05-13T13:15:48.532Z,4.80
2019-05-13T13:18:18.015Z,5.20
2019-05-13T13:20:57.988Z,3.77
2019-05-13T13:23:23.695Z,3.62
2019-05-13T13:25:57.148Z,3.55
2019-05-13T13:28:27.759Z,2.80
2019-05-13T13:31:03.799Z,4.72
2019-05-13T13:33:34.290Z,5.00
2019-05-13T13:36:05.977Z,6.25
2019-05-13T13:38:37.702Z,5.42
2019-05-13T13:41:08.784Z,6.35
2019-05-13T13:43:42.026Z,4.53
2019-05-13T13:46:32.658Z,4.50
2019-05-13T13:48:45.588Z,4.42
2019-05-13T13:51:16.771Z,3.62
2019-05-13T13:53:47.851Z,3.72
2019-05-13T13:56:24.486Z,4.25
2019-05-13T13:58:52.050Z,4.40
2019-05-13T14:01:27.218Z,3.60
2019-05-13T14:03:56.171Z,4.28
2019-05-13T14:09:01.533Z,4.70
2019-05-13T14:11:33.487Z,5.28
2019-05-13T14:14:04.817Z,3.90
2019-05-13T14:16:36.082Z,6.97
2019-05-13T14:19:07.473Z,4.30
2019-05-13T14:21:38.570Z,3.70
2019-05-13T14:24:12.061Z,5.90
2019-05-13T14:26:43.460Z,6.95
2019-05-13T14:29:14.613Z,4.70
2019-05-13T14:31:45.887Z,4.30
2019-05-13T14:34:17.472Z,6.92
2019-05-13T14:36:51.767Z,5.62
2019-05-13T14:39:23.056Z,4.20
2019-05-13T14:41:54.346Z,6.22
2019-05-13T14:44:25.534Z,5.97
2019-05-13T14:46:56.996Z,5.20
2019-05-13T14:49:31.721Z,5.45
2019-05-13T14:52:02.986Z,5.50
2019-05-13T14:54:35.443Z,5.22
2019-05-13T14:57:11.720Z,6.35
2019-05-13T14:59:42.482Z,7.60
2019-05-13T15:02:13.640Z,9.00
2019-05-13T15:04:44.807Z,8.83
2019-05-13T15:07:16.330Z,9.53
2019-05-13T15:09:47.590Z,9.03
2019-05-13T15:12:21.417Z,20.35
2019-05-13T15:14:52.356Z,11.75
2019-05-13T15:17:23.764Z,13.35
2019-05-13T15:19:56.540Z,11.85
2019-05-13T15:22:27.879Z,10.40
2019-05-13T15:24:59.011Z,9.93
2019-05-13T15:27:31.727Z,7.47
2019-05-13T15:30:16.733Z,5.80
2019-05-13T15:32:36.139Z,6.35
2019-05-13T15:35:10.099Z,7.47
2019-05-13T15:37:41.747Z,6.67
2019-05-13T15:40:13.023Z,7.37
2019-05-13T15:42:44.257Z,4.62
2019-05-13T15:45:15.542Z,5.78
2019-05-13T15:47:46.898Z,5.58
2019-05-13T15:50:18.195Z,5.50
2019-05-13T15:52:49.352Z,8.05
2019-05-13T15:55:22.432Z,9.43
2019-05-13T15:57:53.683Z,10.65
2019-05-13T16:00:25.237Z,10.98
2019-05-13T16:02:56.238Z,11.40
2019-05-13T16:05:27.688Z,13.35
2019-05-13T16:08:01.385Z,9.75
2019-05-13T16:10:32.124Z,10.43
2019-05-13T16:13:03.108Z,9.85
2019-05-13T16:15:34.304Z,10.65
2019-05-13T16:18:05.512Z,8.88
2019-05-13T16:20:37.058Z,8.50
2019-05-13T16:23:08.273Z,8.18
2019-05-13T16:25:41.617Z,7.75
2019-05-13T16:28:13.531Z,7.90
2019-05-13T16:30:44.536Z,13.18
2019-05-13T16:33:16.077Z,11.85
2019-05-13T16:35:47.092Z,12.35
2019-05-13T16:38:18.444Z,11.60
2019-05-13T16:40:51.482Z,11.40
2019-05-13T16:43:22.915Z,9.73
2019-05-13T16:45:54.282Z,8.43
2019-05-13T16:48:25.469Z,8.88
2019-05-13T16:50:56.566Z,10.23
2019-05-13T16:53:27.679Z,10.63
2019-05-13T16:55:58.649Z,8.40
2019-05-13T16:58:32.428Z,9.85
2019-05-13T17:01:03.853Z,8.73
2019-05-13T17:03:36.371Z,11.33
2019-05-13T17:06:07.571Z,9.85
2019-05-13T17:08:39.333Z,10.72
2019-05-13T17:11:11.834Z,8.45
2019-05-13T17:13:43.533Z,6.80
2019-05-13T17:16:14.735Z,6.35
2019-05-13T17:18:45.881Z,8.08
2019-05-13T17:21:17.109Z,11.65
2019-05-13T17:23:48.420Z,9.58
2019-05-13T17:26:21.955Z,7.95
2019-05-13T17:28:52.230Z,8.30
2019-05-13T17:31:23.908Z,8.85
2019-05-13T17:33:54.939Z,7.58
2019-05-13T17:36:26.191Z,7.08
2019-05-13T17:38:57.163Z,6.85
2019-05-13T17:41:28.479Z,7.40
2019-05-13T17:43:59.614Z,14.73
2019-05-13T17:46:32.598Z,21.45
2019-05-13T17:49:03.749Z,18.42
2019-05-13T17:51:34.865Z,19.57
2019-05-13T17:54:06.126Z,19.80
2019-05-13T17:56:37.283Z,20.57
2019-05-13T17:59:08.500Z,19.67
2019-05-13T18:01:41.231Z,10.35
2019-05-13T18:04:12.590Z,11.97
2019-05-13T18:06:43.713Z,12.43
2019-05-13T18:09:14.914Z,11.75
2019-05-13T18:11:45.947Z,11.78
2019-05-13T18:14:16.988Z,12.15
2019-05-13T18:16:48.208Z,12.80
2019-05-13T18:19:19.442Z,8.78
2019-05-13T18:21:51.605Z,8.58
2019-05-13T18:24:23.059Z,7.72
2019-05-13T18:26:54.280Z,8.28
2019-05-13T18:29:26.167Z,6.53
2019-05-13T18:31:57.372Z,7.72
2019-05-13T18:34:28.554Z,7.70
2019-05-13T18:37:02.187Z,6.65
2019-05-13T18:39:32.603Z,7.47
2019-05-13T18:42:03.735Z,10.08
2019-05-13T18:44:34.962Z,16.07
2019-05-13T18:47:06.236Z,15.15
2019-05-13T18:49:37.234Z,14.47
2019-05-13T18:52:08.386Z,12.88
2019-05-13T18:54:41.910Z,14.63
2019-05-13T18:57:12.450Z,15.35
2019-05-13T18:59:43.620Z,12.75
2019-05-13T19:02:14.668Z,13.88
2019-05-13T19:04:45.560Z,11.00
2019-05-13T19:07:16.920Z,9.60
2019-05-13T19:09:48.167Z,10.88
2019-05-13T19:12:21.992Z,10.85
2019-05-13T19:14:53.393Z,10.28
2019-05-13T19:17:24.562Z,9.50
2019-05-13T19:19:55.586Z,9.50
2019-05-13T19:22:26.848Z,8.38
2019-05-13T19:24:57.942Z,8.73
2019-05-13T19:27:28.939Z,9.73
2019-05-13T19:30:01.350Z,11.95
2019-05-13T19:32:32.784Z,10.25
2019-05-13T19:35:04.518Z,11.55
2019-05-13T19:37:36.301Z,10.60
2019-05-13T19:40:08.990Z,9.45
2019-05-13T19:42:41.875Z,10.32
2019-05-13T19:45:13.573Z,8.40
2019-05-13T19:47:44.964Z,6.57
2019-05-13T19:50:16.510Z,5.80
2019-05-13T19:52:47.566Z,6.43
2019-05-13T19:55:18.700Z,5.55
2019-05-13T19:57:51.700Z,6.00
2019-05-13T20:00:23.095Z,5.85
2019-05-13T20:02:54.248Z,5.62
2019-05-13T20:05:25.234Z,6.20
2019-05-13T20:07:56.438Z,5.60
2019-05-13T20:10:31.344Z,7.25
2019-05-13T20:13:01.955Z,8.93
2019-05-13T20:15:33.386Z,9.53
2019-05-13T20:18:05.014Z,10.13
2019-05-13T20:20:36.254Z,10.32
2019-05-13T20:23:07.534Z,8.83
2019-05-13T20:25:38.542Z,8.70
2019-05-13T20:28:11.604Z,7.75
2019-05-13T20:30:45.389Z,7.65
2019-05-13T20:33:15.294Z,7.72
2019-05-13T20:35:46.534Z,7.13
2019-05-13T20:38:17.524Z,5.80
2019-05-13T20:40:51.792Z,6.75
2019-05-13T20:43:22.575Z,6.40
2019-05-13T20:45:53.855Z,5.60
2019-05-13T20:48:25.003Z,5.87
2019-05-13T20:50:56.074Z,6.03
2019-05-13T20:53:27.347Z,5.67
2019-05-13T20:55:58.306Z,6.50
2019-05-13T20:58:31.572Z,6.60
2019-05-13T21:01:02.638Z,6.70
2019-05-13T21:03:33.905Z,6.47
2019-05-13T21:06:05.230Z,7.40
2019-05-13T21:08:36.312Z,6.27
2019-05-13T21:11:07.493Z,6.72
2019-05-13T21:13:38.629Z,6.87
2019-05-13T21:16:11.465Z,6.30
2019-05-13T21:18:42.681Z,6.10
2019-05-13T21:21:13.847Z,5.77
2019-05-13T21:23:45.111Z,6.08
2019-05-13T21:26:16.227Z,5.40
2019-05-13T21:28:47.521Z,5.23
2019-05-13T21:31:18.743Z,4.80
2019-05-13T21:33:51.393Z,5.08
2019-05-13T21:36:22.830Z,4.95
2019-05-13T21:38:54.226Z,5.43
2019-05-13T21:41:25.337Z,5.57
2019-05-13T21:43:56.562Z,5.93
2019-05-13T21:46:27.679Z,6.00
2019-05-13T21:49:00.959Z,7.40
2019-05-13T21:51:31.651Z,6.80
2019-05-13T21:54:02.866Z,6.70
2019-05-13T21:56:33.873Z,7.20
2019-05-13T21:59:04.975Z,7.23
2019-05-13T22:01:36.732Z,7.90
2019-05-13T22:04:09.239Z,7.83
2019-05-13T22:06:40.658Z,7.40
2019-05-13T22:09:13.239Z,7.57
2019-05-13T22:11:44.377Z,8.50
2019-05-13T22:14:15.347Z,7.80
2019-05-13T22:16:46.585Z,7.33
2019-05-13T22:19:17.745Z,6.90
2019-05-13T22:21:51.407Z,6.93
2019-05-13T22:24:22.150Z,6.70
2019-05-13T22:26:53.701Z,5.77
2019-05-13T22:29:24.959Z,6.07
2019-05-13T22:31:56.221Z,6.60
2019-05-13T22:34:27.207Z,6.83
2019-05-13T22:36:58.233Z,6.77
2019-05-13T22:39:32.295Z,7.00
2019-05-13T22:42:02.415Z,6.80
2019-05-13T22:44:33.835Z,7.57
2019-05-13T22:47:05.119Z,6.77
2019-05-13T22:49:36.456Z,7.27
2019-05-13T22:52:07.908Z,7.27
2019-05-13T22:54:41.224Z,8.07
2019-05-13T22:57:12.302Z,7.00
2019-05-13T22:59:43.304Z,8.20
2019-05-13T23:02:14.339Z,7.15
2019-05-13T23:04:45.423Z,8.13
2019-05-13T23:07:16.701Z,8.13
2019-05-13T23:09:47.853Z,7.10
2019-05-13T23:12:21.144Z,7.10
2019-05-13T23:14:52.143Z,8.57
2019-05-13T23:17:23.511Z,6.70
2019-05-13T23:19:54.846Z,7.30
2019-05-13T23:22:25.966Z,9.53
2019-05-13T23:24:56.856Z,9.57
2019-05-13T23:27:27.894Z,8.10
2019-05-13T23:30:01.079Z,9.43
2019-05-13T23:32:32.108Z,7.97
2019-05-13T23:35:03.477Z,9.73
2019-05-13T23:37:34.687Z,9.20
2019-05-13T23:40:08.169Z,9.33
2019-05-13T23:42:39.334Z,10.40
2019-05-13T23:45:11.455Z,8.97
2019-05-13T23:47:43.296Z,8.77
2019-05-13T23:50:14.686Z,7.97
2019-05-13T23:52:46.434Z,8.00
2019-05-13T23:55:17.596Z,10.23
2019-05-13T23:57:48.520Z,12.80
